Time;durP1;ratioP1;P1;durP2;ratioP2;P2;SDS_P1;SDS_P2;PMS_P1;PMS_P2;Temp;Humidity;BMP_temperature;BMP_pressure;BME280_temperature;BME280_humidity;BME280_pressure;Samples;Min_cycle;Max_cycle;Signal;HPM_P1;HPM_P2
2022/05/25 00:01:00;;;;;;;5.93;3.08;;;;;;;19.80;58.76;99415.06;4403257;32;33952;-87
2022/05/25 00:03:29;;;;;;;3.70;3.03;;;;;;;19.85;59.19;99418.19;4418172;32;32902;-87
2022/05/25 00:05:59;;;;;;;3.35;3.05;;;;;;;19.93;59.49;99431.75;4395976;32;33200;-87
2022/05/25 00:08:27;;;;;;;7.72;3.47;;;;;;;19.90;59.39;99440.06;4402131;32;34487;-87
2022/05/25 00:10:55;;;;;;;3.50;2.90;;;;;;;19.78;60.42;99438.44;4417920;32;32916;-87
2022/05/25 00:13:23;;;;;;;3.33;3.00;;;;;;;20.10;58.53;99430.25;4405690;32;34535;-87
2022/05/25 00:15:52;;;;;;;3.95;3.60;;;;;;;20.21;57.75;99420.25;4402597;32;33120;-87
2022/05/25 00:18:20;;;;;;;3.40;3.10;;;;;;;20.04;58.38;99412.06;4390716;32;34170;-87
2022/05/25 00:20:48;;;;;;;4.70;3.50;;;;;;;20.13;58.21;99412.06;4389094;32;32601;-87
2022/05/25 00:23:17;;;;;;;3.05;2.75;;;;;;;20.05;58.25;99408.38;4392825;32;35054;-86
2022/05/25 00:25:45;;;;;;;5.35;3.08;;;;;;;20.16;58.02;99409.09;4392966;32;33262;-87
2022/05/25 00:28:14;;;;;;;3.95;2.90;;;;;;;19.97;58.84;99410.88;4392898;32;32736;-88
2022/05/25 00:30:43;;;;;;;3.03;2.45;;;;;;;20.23;58.07;99408.56;4380500;32;34096;-87
2022/05/25 00:33:13;;;;;;;4.40;3.72;;;;;;;20.12;58.46;99418.41;4377814;32;32506;-88
2022/05/25 00:35:41;;;;;;;4.12;3.30;;;;;;;20.15;58.41;99412.78;4365278;32;33527;-88
2022/05/25 00:38:09;;;;;;;5.05;3.15;;;;;;;20.09;58.84;99416.00;4353252;32;34210;-87
2022/05/25 00:40:38;;;;;;;3.67;3.37;;;;;;;20.20;58.28;99423.09;4365897;32;33794;-87
2022/05/25 00:43:07;;;;;;;5.07;3.95;;;;;;;20.18;58.09;99425.91;4377055;32;32922;-88
2022/05/25 00:45:39;;;;;;;5.60;3.47;;;;;;;20.26;58.43;99419.00;4389448;32;33013;-87
2022/05/25 00:48:08;;;;;;;4.40;3.40;;;;;;;20.03;59.54;99416.53;4385454;32;32839;-87
2022/05/25 00:53:22;;;;;;;4.60;2.95;;;;;;;20.13;58.98;99414.75;4390025;32;33937;-86
2022/05/25 00:55:50;;;;;;;4.00;3.47;;;;;;;19.95;59.54;99419.06;4383484;32;33370;-87
2022/05/25 00:58:18;;;;;;;3.17;2.87;;;;;;;20.03;59.11;99416.53;4401769;32;34543;-87
2022/05/25 01:00:46;;;;;;;5.45;2.83;;;;;;;20.02;59.39;99420.19;4378736;32;33467;-86
2022/05/25 01:03:15;;;;;;;6.70;4.15;;;;;;;20.09;58.78;99421.37;4400342;32;33860;-86
2022/05/25 01:06:07;;;;;;;5.43;3.33;;;;;;;20.25;57.98;99420.00;4386885;32;32515;-86
2022/05/25 01:08:56;;;;;;;5.18;3.65;;;;;;;20.50;57.15;99429.37;4396058;32;34757;-87
2022/05/25 01:11:39;;;;;;;4.68;2.72;;;;;;;20.18;58.02;99433.94;4398912;32;33852;-87
2022/05/25 01:14:29;;;;;;;2.90;2.70;;;;;;;20.26;58.11;99438.59;4398691;32;32813;-86
2022/05/25 01:17:05;;;;;;;5.43;3.50;;;;;;;20.21;58.55;99430.97;4389322;32;33622;-87
2022/05/25 01:19:42;;;;;;;3.47;2.80;;;;;;;20.17;58.08;99424.19;4397824;32;34226;-86
2022/05/25 01:22:30;;;;;;;3.83;3.30;;;;;;;19.95;58.77;99424.44;4400212;32;32479;-86
2022/05/25 01:25:06;;;;;;;4.10;3.12;;;;;;;20.20;58.14;99429.28;4381566;32;33631;-87
2022/05/25 01:27:38;;;;;;;5.95;3.00;;;;;;;20.20;57.38;99439.16;4396990;32;34680;-86
2022/05/25 01:30:17;;;;;;;3.33;3.03;;;;;;;19.94;58.33;99433.47;4381943;32;32437;-88
2022/05/25 01:33:11;;;;;;;4.87;4.18;;;;;;;20.26;57.28;99437.75;4395538;32;32839;-88
2022/05/25 01:35:56;;;;;;;5.50;3.25;;;;;;;20.21;57.31;99435.50;4378497;32;33485;-88
2022/05/25 01:38:57;;;;;;;4.37;2.97;;;;;;;19.93;58.64;99437.09;4381349;32;33273;-87
2022/05/25 01:41:40;;;;;;;3.62;3.33;;;;;;;19.95;57.74;99430.63;4410381;32;33598;-88
2022/05/25 01:44:22;;;;;;;4.80;2.85;;;;;;;19.79;58.41;99430.28;4394041;32;33321;-87
2022/05/25 01:46:56;;;;;;;9.18;2.90;;;;;;;19.91;57.47;99433.72;4392676;32;33835;-87
2022/05/25 01:49:29;;;;;;;4.40;2.47;;;;;;;19.94;57.34;99438.81;4394847;32;33611;-87
2022/05/25 01:52:02;;;;;;;3.03;2.65;;;;;;;19.77;57.93;99439.44;4399694;32;33061;-88
2022/05/25 01:54:32;;;;;;;5.28;3.62;;;;;;;19.83;57.38;99437.06;4417298;32;33654;-88
2022/05/25 01:57:05;;;;;;;2.87;2.22;;;;;;;19.99;57.00;99416.94;4396028;32;32747;-87
2022/05/25 01:59:35;;;;;;;2.60;2.40;;;;;;;20.06;56.15;99427.00;4376255;32;32761;-91
2022/05/25 02:05:21;;;;;;;2.62;2.42;;;;;;;19.40;57.76;99427.38;4413868;32;32875;-91
2022/05/25 02:08:24;;;;;;;3.47;2.75;;;;;;;19.35;58.07;99432.28;4372524;32;32455;-91
2022/05/25 02:11:33;;;;;;;3.65;2.95;;;;;;;19.60;57.59;99435.53;4361274;32;34490;-91
2022/05/25 02:14:22;;;;;;;3.47;2.42;;;;;;;19.54;57.17;99438.72;4363004;32;32992;-92
2022/05/25 02:17:28;;;;;;;7.12;3.28;;;;;;;19.56;56.83;99431.41;4360264;32;32607;-91
2022/05/25 02:20:24;;;;;;;2.78;2.33;;;;;;;19.54;57.20;99434.22;4357546;32;33118;-92
2022/05/25 02:23:40;;;;;;;3.22;2.50;;;;;;;19.42;57.50;99427.25;4393138;32;35414;-91
2022/05/25 02:26:37;;;;;;;3.17;2.87;;;;;;;19.41;57.83;99417.50;4346039;32;33416;-93
2022/05/25 02:29:25;;;;;;;4.82;2.35;;;;;;;19.42;57.78;99429.94;4392193;32;33793;-92
2022/05/25 02:32:19;;;;;;;4.15;2.70;;;;;;;19.36;58.26;99422.41;4381641;32;33611;-93
2022/05/25 02:35:05;;;;;;;3.75;2.80;;;;;;;19.54;57.61;99415.47;4336733;33;32913;-93
2022/05/25 02:37:50;;;;;;;4.70;2.40;;;;;;;19.44;57.78;99414.56;4394236;32;32963;-94
2022/05/25 02:40:33;;;;;;;5.75;2.55;;;;;;;19.72;56.80;99414.87;4383328;32;32147;-93
2022/05/25 02:43:16;;;;;;;3.00;2.30;;;;;;;19.36;57.95;99415.22;4394616;32;32903;-94
2022/05/25 02:46:00;;;;;;;4.40;2.67;;;;;;;19.50;57.60;99413.19;4380776;32;33642;-94
2022/05/25 02:48:44;;;;;;;5.62;3.00;;;;;;;18.96;59.51;99415.13;4376949;32;32448;-94
2022/05/25 02:51:27;;;;;;;2.87;2.65;;;;;;;19.38;58.27;99415.13;4390630;32;32268;-92
2022/05/25 02:54:10;;;;;;;7.07;2.50;;;;;;;19.30;58.63;99412.25;4373400;32;32543;-92
2022/05/25 02:56:52;;;;;;;2.80;2.60;;;;;;;19.24;58.72;99413.63;4362765;32;33072;-91
2022/05/25 02:59:23;;;;;;;3.08;2.65;;;;;;;19.18;58.91;99420.34;4379271;32;33188;-92
2022/05/25 03:02:12;;;;;;;4.18;2.58;;;;;;;19.02;59.49;99419.09;4374346;32;33528;-92
2022/05/25 03:05:14;;;;;;;2.67;2.47;;;;;;;19.42;58.17;99427.25;4382170;32;33037;-91
2022/05/25 03:07:54;;;;;;;3.42;2.80;;;;;;;19.34;58.37;99419.88;4377897;32;32806;-93
2022/05/25 03:10:45;;;;;;;2.80;2.47;;;;;;;19.13;59.23;99419.91;4376384;32;33615;-95
2022/05/25 03:13:24;;;;;;;8.88;3.00;;;;;;;19.35;58.34;99418.88;4361273;32;32160;-94
2022/05/25 03:16:20;;;;;;;4.37;2.85;;;;;;;19.30;58.46;99417.59;4372625;32;35238;-96
2022/05/25 03:19:00;;;;;;;3.78;3.47;;;;;;;19.19;58.92;99427.41;4391363;32;33859;-95
2022/05/25 03:21:54;;;;;;;4.78;3.10;;;;;;;19.30;58.59;99421.13;4391955;32;34562;-91
2022/05/25 03:24:32;;;;;;;3.17;2.87;;;;;;;18.90;60.23;99426.34;4382625;32;33735;-87
2022/05/25 03:27:00;;;;;;;2.97;2.78;;;;;;;19.19;58.98;99416.69;4372220;32;33165;-87
2022/05/25 03:29:30;;;;;;;4.43;3.00;;;;;;;19.22;58.77;99417.41;4382798;32;33872;-88
2022/05/25 03:31:59;;;;;;;3.90;2.80;;;;;;;19.32;58.23;99418.28;4380588;32;34410;-87
2022/05/25 03:34:28;;;;;;;5.68;3.05;;;;;;;19.28;58.29;99412.38;4370869;32;31841;-87
2022/05/25 03:36:57;;;;;;;4.05;3.10;;;;;;;19.34;58.11;99419.03;4368769;32;32700;-87
2022/05/25 03:39:28;;;;;;;4.12;2.15;;;;;;;19.21;58.57;99423.72;4382477;32;34001;-87
2022/05/25 03:42:04;;;;;;;5.53;2.67;;;;;;;19.21;58.59;99437.13;4371827;32;32873;-87
2022/05/25 03:44:32;;;;;;;3.40;3.10;;;;;;;18.90;59.60;99431.69;4359817;32;32657;-87
2022/05/25 03:47:01;;;;;;;2.97;2.67;;;;;;;18.88;59.91;99444.34;4372046;32;33916;-88
2022/05/25 03:49:29;;;;;;;4.50;2.92;;;;;;;18.60;60.69;99454.63;4360662;32;34012;-87
2022/05/25 03:51:57;;;;;;;3.95;2.78;;;;;;;18.96;59.77;99443.69;4372539;32;34102;-87
2022/05/25 03:54:27;;;;;;;3.30;2.62;;;;;;;18.97;59.58;99448.91;4373490;32;33572;-87
2022/05/25 03:56:56;;;;;;;4.75;2.72;;;;;;;19.01;59.34;99446.84;4372342;32;33626;-86
2022/05/25 03:59:24;;;;;;;3.60;2.85;;;;;;;19.47;58.06;99440.25;4374518;32;33888;-87
2022/05/25 04:01:52;;;;;;;5.75;3.53;;;;;;;19.41;57.94;99455.00;4369197;32;33903;-86
2022/05/25 04:04:21;;;;;;;2.97;2.42;;;;;;;19.14;59.12;99460.87;4373021;32;33290;-86
2022/05/25 04:06:49;;;;;;;3.08;2.78;;;;;;;19.51;57.50;99461.25;4374670;32;34226;-86
2022/05/25 04:09:17;;;;;;;2.92;2.53;;;;;;;19.15;58.98;99463.44;4371820;32;34339;-86
2022/05/25 04:11:48;;;;;;;4.00;2.70;;;;;;;19.61;57.17;99459.53;4361102;32;33695;-87
2022/05/25 04:14:16;;;;;;;4.60;2.60;;;;;;;19.58;57.01;99461.59;4357074;32;32202;-86
2022/05/25 04:16:45;;;;;;;4.25;2.50;;;;;;;19.42;58.29;99464.75;4373872;32;33683;-86
2022/05/25 04:19:15;;;;;;;3.30;2.40;;;;;;;19.74;57.07;99458.44;4370316;32;33346;-86
2022/05/25 04:21:44;;;;;;;3.75;2.15;;;;;;;19.97;55.65;99465.31;4371137;32;33346;-86
2022/05/25 04:24:12;;;;;;;4.65;2.90;;;;;;;19.63;56.53;99468.28;4369757;32;33557;-88
2022/05/25 04:26:40;;;;;;;3.72;2.10;;;;;;;19.73;56.35;99480.88;4358367;32;33569;-88
2022/05/25 04:29:08;;;;;;;2.47;2.28;;;;;;;19.54;57.25;99489.59;4396950;32;34403;-85
2022/05/25 04:31:37;;;;;;;5.12;2.50;;;;;;;19.36;58.21;99489.34;4372636;32;33711;-86
2022/05/25 04:34:06;;;;;;;2.58;2.37;;;;;;;19.60;56.50;99479.22;4364531;32;32410;-85
2022/05/25 04:36:38;;;;;;;3.08;2.40;;;;;;;19.66;55.98;99476.06;4382187;32;33958;-85
2022/05/25 04:39:12;;;;;;;3.10;2.42;;;;;;;19.75;55.84;99470.84;4371095;32;32892;-86
2022/05/25 04:41:43;;;;;;;;;;;;;;;19.66;56.71;99467.16;4359793;32;33807;-86
2022/05/25 04:44:13;;;;;;;2.83;2.47;;;;;;;19.54;56.24;99469.03;4371895;32;32826;-87
2022/05/25 04:46:41;;;;;;;2.90;2.67;;;;;;;19.67;55.39;99467.03;4373269;32;33873;-87
2022/05/25 04:49:09;;;;;;;4.35;2.53;;;;;;;19.22;56.98;99471.78;4360453;32;33425;-89
2022/05/25 04:51:38;;;;;;;2.67;2.12;;;;;;;19.36;56.71;99470.59;4371131;32;33969;-89
2022/05/25 04:54:06;;;;;;;4.20;2.53;;;;;;;19.42;56.42;99475.47;4362200;32;32929;-88
2022/05/25 04:59:22;;;;;;;2.87;2.20;;;;;;;19.34;57.35;99478.78;4362040;32;33625;-89
2022/05/25 05:01:50;;;;;;;4.28;2.60;;;;;;;19.34;57.27;99486.81;4383979;32;32857;-85
2022/05/25 05:04:19;;;;;;;8.90;3.12;;;;;;;19.45;57.42;99483.22;4366690;32;33110;-88
2022/05/25 05:06:49;;;;;;;7.00;2.25;;;;;;;19.55;57.59;99491.28;4360175;32;33606;-91
2022/05/25 05:09:17;;;;;;;3.95;2.80;;;;;;;19.86;56.70;99489.53;4354091;32;33040;-91
2022/05/25 05:11:53;;;;;;;3.87;2.92;;;;;;;19.67;57.16;99490.28;4359465;32;32834;-88
2022/05/25 05:14:21;;;;;;;2.53;2.33;;;;;;;19.95;56.59;99496.78;4367449;32;31978;-89
2022/05/25 05:16:57;;;;;;;2.42;2.20;;;;;;;20.23;56.06;99497.03;4380577;32;33804;-88
2022/05/25 05:19:27;;;;;;;3.83;2.60;;;;;;;20.20;56.47;99509.72;4350095;32;33344;-88
2022/05/25 05:21:57;;;;;;;3.40;2.70;;;;;;;19.80;57.10;99496.28;4369556;32;34378;-88
2022/05/25 05:24:30;;;;;;;6.35;3.60;;;;;;;19.63;58.11;99500.41;4357339;32;33182;-86
2022/05/25 05:27:00;;;;;;;3.78;2.95;;;;;;;19.72;57.34;99508.66;4376815;32;33592;-87
2022/05/25 05:29:32;;;;;;;5.43;3.50;;;;;;;19.45;59.02;99507.31;4380965;32;33390;-91
2022/05/25 05:32:19;;;;;;;4.47;2.92;;;;;;;19.93;57.53;99512.13;4361659;32;33067;-92
2022/05/25 05:35:12;;;;;;;5.97;3.00;;;;;;;19.91;57.62;99519.47;4353726;32;33014;-90
2022/05/25 05:37:46;;;;;;;3.15;2.00;;;;;;;20.27;56.09;99519.88;4325975;32;32505;-89
2022/05/25 05:40:16;;;;;;;5.50;2.95;;;;;;;20.43;56.14;99520.25;4331185;32;32828;-88
2022/05/25 05:42:48;;;;;;;4.95;2.78;;;;;;;20.37;56.35;99531.53;4350498;32;32523;-88
2022/05/25 05:45:19;;;;;;;5.28;3.00;;;;;;;20.49;57.06;99530.44;4350374;32;32293;-88
2022/05/25 05:47:58;;;;;;;5.65;3.10;;;;;;;20.03;57.29;99525.56;4350344;32;32629;-89
2022/05/25 05:50:28;;;;;;;5.30;2.80;;;;;;;20.54;56.13;99528.19;4349701;32;33031;-88
2022/05/25 05:53:05;;;;;;;4.80;2.58;;;;;;;20.37;56.36;99543.09;4336175;33;32872;-88
2022/05/25 05:55:40;;;;;;;6.90;2.62;;;;;;;20.21;56.50;99537.38;4335338;33;32062;-88
2022/05/25 05:58:10;;;;;;;5.43;3.78;;;;;;;20.58;55.76;99534.16;4347319;33;36067;-88
2022/05/25 06:00:39;;;;;;;4.65;2.70;;;;;;;20.52;56.87;99551.63;4335073;33;33295;-88
2022/05/25 06:03:08;;;;;;;4.85;3.28;;;;;;;20.29;56.12;99555.47;4336924;32;32457;-88
2022/05/25 06:05:37;;;;;;;5.75;3.12;;;;;;;20.41;56.06;99551.69;4344110;32;33481;-88
2022/05/25 06:08:11;;;;;;;4.62;3.25;;;;;;;20.24;56.62;99541.63;4337760;32;33356;-89
2022/05/25 06:10:40;;;;;;;6.50;3.35;;;;;;;20.36;57.07;99541.38;4334660;32;33522;-87
2022/05/25 06:13:10;;;;;;;6.12;3.30;;;;;;;20.11;56.07;99542.69;4358492;32;33925;-89
2022/05/25 06:21:18;;;;;;;3.85;2.92;;;;;;;20.60;56.04;99535.69;4350586;32;33638;-88
2022/05/25 06:23:46;;;;;;;3.12;2.58;;;;;;;20.95;55.58;99548.63;4341165;32;34134;-88
2022/05/25 06:26:15;;;;;;;5.57;3.03;;;;;;;21.03;55.67;99549.75;4347303;32;33299;-89
2022/05/25 06:28:44;;;;;;;3.75;3.20;;;;;;;21.21;55.36;99545.38;4337792;32;33076;-88
2022/05/25 06:31:17;;;;;;;4.30;3.12;;;;;;;21.30;54.55;99557.97;4355537;32;32971;-88
2022/05/25 06:33:45;;;;;;;;;;;;;;;21.05;54.27;99554.00;4346895;33;33771;-89
2022/05/25 06:36:19;;;;;;;4.45;3.20;;;;;;;21.37;53.62;99547.56;4359442;32;34442;-89
2022/05/25 06:38:48;;;;;;;3.37;3.00;;;;;;;21.45;53.41;99534.25;4347526;32;33412;-87
2022/05/25 06:41:17;;;;;;;3.12;2.62;;;;;;;21.30;54.24;99538.31;4333752;32;34128;-87
2022/05/25 06:43:45;;;;;;;3.00;2.55;;;;;;;21.52;53.68;99538.06;4333568;33;32457;-88
2022/05/25 06:46:19;;;;;;;4.45;3.08;;;;;;;21.30;55.19;99536.47;4323280;32;33434;-88
2022/05/25 06:48:55;;;;;;;7.03;3.22;;;;;;;21.63;54.55;99537.91;4359996;32;33958;-90
2022/05/25 06:51:29;;;;;;;4.90;3.62;;;;;;;22.24;52.34;99529.41;4356609;32;34164;-87
2022/05/25 06:54:03;;;;;;;7.35;2.80;;;;;;;22.09;52.64;99535.37;4350298;32;33965;-87
2022/05/25 06:56:31;;;;;;;5.45;3.47;;;;;;;22.30;52.64;99537.88;4344423;32;33952;-87
2022/05/25 06:59:00;;;;;;;5.32;3.33;;;;;;;22.74;52.08;99541.59;4350032;32;34149;-86
2022/05/25 07:01:28;;;;;;;6.10;3.00;;;;;;;22.64;52.07;99544.34;4343204;33;32953;-87
2022/05/25 07:06:35;;;;;;;3.42;2.72;;;;;;;23.03;51.04;99544.16;4365715;32;33357;-87
2022/05/25 07:09:12;;;;;;;3.70;2.42;;;;;;;22.59;51.71;99557.41;4349103;32;33463;-87
2022/05/25 07:11:42;;;;;;;5.35;3.55;;;;;;;22.79;51.99;99557.28;4361330;32;32766;-87
2022/05/25 07:14:10;;;;;;;4.35;2.87;;;;;;;23.12;51.14;99553.13;4361376;32;34059;-86
2022/05/25 07:16:42;;;;;;;3.53;2.90;;;;;;;23.02;50.91;99539.75;4348399;32;32418;-87
2022/05/25 07:19:11;;;;;;;4.80;2.67;;;;;;;23.07;50.05;99548.19;4353162;32;33490;-88
2022/05/25 07:21:39;;;;;;;11.52;2.90;;;;;;;23.44;50.17;99539.13;4344625;32;33208;-88
2022/05/25 07:24:11;;;;;;;4.50;2.80;;;;;;;23.24;50.25;99535.75;4351104;32;34529;-88
2022/05/25 07:26:39;;;;;;;4.50;3.45;;;;;;;23.35;51.49;99545.44;4361913;32;32151;-88
2022/05/25 07:29:09;;;;;;;5.62;3.05;;;;;;;23.91;49.24;99547.75;4350690;32;32724;-88
2022/05/25 07:31:48;;;;;;;3.55;3.20;;;;;;;23.88;49.41;99544.53;4362913;32;34063;-88
2022/05/25 07:34:20;;;;;;;4.60;3.20;;;;;;;24.05;48.74;99546.34;4377966;32;32641;-88
2022/05/25 07:37:05;;;;;;;4.32;3.30;;;;;;;24.06;48.76;99539.94;4365968;32;33738;-88
2022/05/25 07:42:20;;;;;;;3.90;3.37;;;;;;;24.03;51.83;99542.97;4366875;32;33365;-88
2022/05/25 07:44:52;;;;;;;4.10;3.12;;;;;;;23.94;49.67;99543.91;4365642;32;33505;-88
2022/05/25 07:47:21;;;;;;;5.45;3.00;;;;;;;24.14;48.85;99539.97;4363815;32;32260;-90
2022/05/25 07:49:51;;;;;;;6.05;3.65;;;;;;;24.34;48.34;99547.84;4364740;32;34709;-88
2022/05/25 07:52:22;;;;;;;4.43;3.17;;;;;;;24.38;48.37;99549.25;4374014;32;33025;-88
2022/05/25 07:54:51;;;;;;;4.78;3.17;;;;;;;24.67;47.66;99543.44;4361308;32;32640;-88
2022/05/25 07:57:19;;;;;;;4.93;3.50;;;;;;;24.93;47.65;99546.06;4358689;32;32994;-88
2022/05/25 07:59:48;;;;;;;5.75;3.30;;;;;;;24.77;47.50;99536.87;4355569;32;34590;-87
2022/05/25 08:08:04;;;;;;;4.53;3.80;;;;;;;24.23;48.83;99555.22;4362146;32;33581;-88
2022/05/25 08:10:38;;;;;;;4.15;3.45;;;;;;;24.91;47.62;99553.47;4352751;32;32884;-88
2022/05/25 08:13:06;;;;;;;7.10;4.18;;;;;;;25.14;48.24;99548.31;4359815;32;33244;-89
2022/05/25 08:15:35;;;;;;;3.83;3.40;;;;;;;24.87;48.27;99557.50;4354750;32;32802;-88
2022/05/25 08:18:03;;;;;;;6.78;4.07;;;;;;;24.57;48.70;99550.84;4370245;32;32634;-88
2022/05/25 08:20:32;;;;;;;6.55;3.72;;;;;;;24.75;50.03;99549.72;4355322;32;34217;-88
2022/05/25 08:23:03;;;;;;;10.57;4.87;;;;;;;25.08;49.31;99555.25;4335161;32;33539;-89
2022/05/25 08:25:31;;;;;;;6.55;4.87;;;;;;;25.06;47.32;99549.09;4374596;32;32983;-89
2022/05/25 08:28:00;;;;;;;5.93;4.72;;;;;;;25.27;48.27;99541.41;4357427;32;33343;-89
2022/05/25 08:30:32;;;;;;;4.18;3.78;;;;;;;25.17;48.60;99542.59;4337981;32;34234;-87
2022/05/25 08:33:02;;;;;;;7.43;5.05;;;;;;;25.33;48.19;99537.19;4353268;32;32915;-88
2022/05/25 08:35:31;;;;;;;5.57;4.60;;;;;;;25.20;48.45;99536.84;4360631;32;33754;-88
2022/05/25 08:37:59;;;;;;;5.35;4.28;;;;;;;25.60;48.25;99546.00;4356998;32;31914;-88
2022/05/25 08:40:30;;;;;;;5.30;3.95;;;;;;;25.97;47.54;99534.63;4364421;32;33867;-87
2022/05/25 08:43:37;;;;;;;5.85;4.35;;;;;;;25.82;47.40;99536.34;4371421;32;33517;-88
2022/05/25 08:46:07;;;;;;;6.40;4.65;;;;;;;26.39;46.10;99539.75;4381365;32;32872;-88
2022/05/25 08:48:38;;;;;;;5.47;4.97;;;;;;;26.84;45.97;99538.22;4366701;32;33329;-86
2022/05/25 08:51:26;;;;;;;8.52;5.12;;;;;;;26.15;47.05;99545.25;4362821;32;33526;-87
2022/05/25 08:53:57;;;;;;;5.37;4.87;;;;;;;25.87;47.41;99544.78;4354247;32;33409;-87
2022/05/25 08:56:44;;;;;;;6.72;4.80;;;;;;;26.09;46.32;99543.25;4351728;32;33603;-87
2022/05/25 08:59:18;;;;;;;5.97;4.75;;;;;;;26.68;44.79;99524.75;4374333;32;32816;-87
2022/05/25 09:01:59;;;;;;;5.57;4.97;;;;;;;26.51;46.89;99527.56;4352125;32;32566;-86
2022/05/25 09:04:52;;;;;;;4.43;3.97;;;;;;;25.66;47.09;99532.62;4358631;32;33999;-88
2022/05/25 09:07:56;;;;;;;7.85;5.00;;;;;;;26.30;46.97;99519.13;4372210;32;32332;-89
2022/05/25 09:10:26;;;;;;;7.03;5.12;;;;;;;26.91;45.48;99524.81;4363932;32;31246;-89
2022/05/25 09:12:58;;;;;;;6.12;4.47;;;;;;;26.50;45.46;99527.75;4363610;32;32852;-89
2022/05/25 09:15:29;;;;;;;7.50;5.05;;;;;;;26.60;45.94;99527.53;4361404;32;36486;-93
2022/05/25 09:18:14;;;;;;;4.75;4.32;;;;;;;26.25;46.76;99538.63;4352417;32;32703;-92
2022/05/25 09:20:58;;;;;;;4.97;4.47;;;;;;;27.06;45.87;99525.72;4389779;32;32077;-91
2022/05/25 09:23:41;;;;;;;5.45;4.10;;;;;;;26.78;47.67;99528.97;4336204;32;33775;-94
2022/05/25 09:26:38;;;;;;;5.15;4.50;;;;;;;27.67;43.83;99528.47;4399764;32;34609;-93
2022/05/25 09:29:22;;;;;;;6.45;4.65;;;;;;;26.95;44.85;99540.53;4371040;32;32704;-95
2022/05/25 09:32:44;;;;;;;6.25;4.60;;;;;;;26.94;45.81;99530.72;4356688;32;33452;-93
2022/05/25 09:35:31;;;;;;;8.82;4.85;;;;;;;27.05;45.48;99524.88;4361238;32;32996;-95
2022/05/25 09:38:36;;;;;;;6.47;4.80;;;;;;;26.62;47.10;99529.03;4373791;32;33079;-93
2022/05/25 09:41:21;;;;;;;5.25;4.70;;;;;;;27.72;45.96;99521.50;4381838;32;32993;-96
2022/05/25 09:44:18;;;;;;;6.62;5.72;;;;;;;27.53;44.30;99530.97;4377729;32;31730;-91
2022/05/25 09:46:59;;;;;;;7.55;5.40;;;;;;;27.44;44.48;99533.94;4378878;32;33857;-91
2022/05/25 09:49:30;;;;;;;7.32;5.37;;;;;;;27.17;45.70;99538.91;4378961;32;33570;-91
2022/05/25 09:52:16;;;;;;;6.03;4.78;;;;;;;27.53;44.55;99532.84;4342771;32;32740;-92
2022/05/25 09:55:11;;;;;;;5.93;4.95;;;;;;;28.06;43.47;99528.31;4375851;32;32693;-90
2022/05/25 09:58:23;;;;;;;7.82;4.95;;;;;;;28.31;46.23;99529.72;4368200;32;34697;-92
2022/05/25 10:01:05;;;;;;;5.57;4.72;;;;;;;28.17;43.99;99530.56;4351651;32;33816;-91
2022/05/25 10:03:40;;;;;;;5.43;4.65;;;;;;;28.74;43.44;99527.16;4340145;32;32623;-91
2022/05/25 10:06:51;;;;;;;6.03;4.68;;;;;;;28.76;44.39;99527.78;4351617;32;32787;-90
2022/05/25 10:09:28;;;;;;;4.82;4.40;;;;;;;28.63;44.69;99524.94;4328983;32;32251;-91
2022/05/25 10:12:00;;;;;;;7.40;5.32;;;;;;;28.90;43.63;99530.66;4339710;32;32667;-91
2022/05/25 10:14:35;;;;;;;6.53;5.18;;;;;;;28.93;42.63;99530.28;4350809;32;32857;-91
2022/05/25 10:17:08;;;;;;;6.75;5.25;;;;;;;29.19;41.45;99521.59;4339186;32;33318;-90
2022/05/25 10:19:47;;;;;;;7.97;6.03;;;;;;;28.23;42.69;99524.38;4338502;32;34210;-90
2022/05/25 10:22:30;;;;;;;5.60;4.93;;;;;;;28.10;44.07;99520.63;4351245;32;33369;-91
2022/05/25 10:25:25;;;;;;;9.68;5.65;;;;;;;28.89;42.53;99520.84;4339291;32;33051;-91
2022/05/25 10:38:30;;;;;;;5.93;4.75;;;;;;;29.42;41.15;99513.25;4364518;32;32498;-89
2022/05/25 10:41:37;;;;;;;6.20;5.22;;;;;;;29.63;42.33;99509.69;4364903;32;32741;-88
2022/05/25 10:44:05;;;;;;;4.95;4.55;;;;;;;29.15;42.45;99515.72;4367353;32;34037;-89
2022/05/25 10:46:33;;;;;;;8.73;5.87;;;;;;;30.01;41.92;99507.47;4367137;32;33065;-89
2022/05/25 10:49:09;;;;;;;7.55;5.28;;;;;;;29.82;39.06;99515.28;4366942;32;32877;-89
2022/05/25 10:51:54;;;;;;;5.87;4.95;;;;;;;30.33;38.74;99516.88;4387553;32;33377;-88
2022/05/25 10:57:44;;;;;;;5.85;4.15;;;;;;;30.25;39.99;99512.44;4372330;32;33678;-89
2022/05/25 11:00:34;;;;;;;5.35;4.85;;;;;;;30.40;38.44;99506.84;4369421;32;34172;-90
2022/05/25 11:03:31;;;;;;;5.65;4.05;;;;;;;30.11;38.53;99507.94;4379330;32;32248;-92
2022/05/25 11:06:52;;;;;;;6.53;4.60;;;;;;;30.41;38.92;99502.25;4386563;32;32848;-86
2022/05/25 11:09:34;;;;;;;5.60;4.40;;;;;;;29.55;39.81;99521.56;4389670;32;33393;-87
2022/05/25 11:12:23;;;;;;;7.70;4.97;;;;;;;29.71;40.31;99518.53;4376722;32;33007;-84
2022/05/25 11:15:31;;;;;;;5.05;4.47;;;;;;;29.42;40.33;99518.69;4373311;32;33442;-87
2022/05/25 11:18:11;;;;;;;5.22;4.05;;;;;;;29.14;40.89;99519.47;4378247;32;32457;-87
2022/05/25 11:20:56;;;;;;;4.57;4.18;;;;;;;28.93;41.32;99525.69;4365380;32;34010;-87
2022/05/25 11:24:10;;;;;;;4.20;3.90;;;;;;;29.48;42.27;99529.63;4369056;32;33910;-87
2022/05/25 11:26:42;;;;;;;5.15;3.95;;;;;;;30.15;39.27;99522.88;4336089;33;33867;-88
2022/05/25 11:29:40;;;;;;;4.45;3.53;;;;;;;30.18;38.84;99525.16;4374195;32;34045;-88
2022/05/25 11:32:24;;;;;;;6.97;4.28;;;;;;;30.28;38.35;99519.34;4374965;32;34097;-88
2022/05/25 11:42:17;;;;;;;4.75;4.12;;;;;;;30.46;37.68;99513.37;4366164;32;34297;-88
2022/05/25 11:45:02;;;;;;;6.62;3.65;;;;;;;30.29;37.79;99515.59;4378489;32;33296;-89
2022/05/25 11:47:42;;;;;;;4.00;3.60;;;;;;;30.60;37.39;99512.38;4365807;32;33206;-88
2022/05/25 11:53:45;;;;;;;3.97;3.67;;;;;;;30.58;37.67;99509.03;4378030;32;33081;-88
2022/05/25 11:56:34;;;;;;;3.95;3.60;;;;;;;30.50;37.82;99517.38;4378194;32;33108;-88
2022/05/25 11:59:45;;;;;;;6.70;4.20;;;;;;;29.94;38.82;99517.44;4378085;32;32837;-89
2022/05/25 12:02:19;;;;;;;5.62;4.32;;;;;;;30.02;39.04;99525.47;4364669;32;32623;-88
2022/05/25 12:05:11;;;;;;;6.05;4.15;;;;;;;29.88;39.84;99529.97;4381565;32;32642;-88
2022/05/25 12:07:46;;;;;;;4.22;3.83;;;;;;;30.18;39.58;99527.06;4368403;32;32668;-89
2022/05/25 12:14:55;;;;;;;5.12;3.35;;;;;;;29.65;42.39;99529.37;4394668;32;35155;-90
2022/05/25 12:18:02;;;;;;;7.55;4.10;;;;;;;29.83;41.04;99529.72;4374486;32;32838;-89
2022/05/25 12:20:36;;;;;;;6.68;4.00;;;;;;;29.98;39.84;99535.91;4368358;32;34160;-90
2022/05/25 12:23:15;;;;;;;5.32;3.55;;;;;;;30.30;39.63;99539.91;4392370;32;32880;-90
2022/05/25 12:25:54;;;;;;;5.32;4.78;;;;;;;30.08;40.55;99547.28;4386065;32;34286;-89
2022/05/25 12:28:33;;;;;;;6.30;4.22;;;;;;;30.04;39.57;99540.53;4393335;32;32911;-90
2022/05/25 12:31:10;;;;;;;4.65;4.28;;;;;;;29.50;40.76;99548.47;4355649;32;33365;-90
2022/05/25 12:33:45;;;;;;;10.05;4.82;;;;;;;29.43;40.97;99551.13;4366112;32;33468;-88
2022/05/25 12:36:14;;;;;;;4.97;4.47;;;;;;;29.43;41.35;99547.56;4366213;32;33762;-88
2022/05/25 12:38:43;;;;;;;24.60;4.55;;;;;;;29.24;41.22;99546.31;4379591;32;32774;-88
2022/05/25 12:41:35;;;;;;;9.13;5.50;;;;;;;28.90;42.01;99545.09;4384319;32;33289;-88
2022/05/25 12:50:51;;;;;;;6.20;5.37;;;;;;;28.76;42.35;99541.38;4379672;32;33336;-88
2022/05/25 12:53:39;;;;;;;6.75;4.85;;;;;;;28.96;41.92;99538.06;4367795;32;33616;-88
2022/05/25 12:56:18;;;;;;;5.65;5.10;;;;;;;29.02;41.22;99540.03;4380160;32;34016;-88
2022/05/25 12:58:46;;;;;;;8.52;4.90;;;;;;;29.47;41.02;99543.41;4392278;32;33794;-89
2022/05/25 13:01:27;;;;;;;6.43;4.53;;;;;;;29.38;41.09;99530.97;4364731;32;32625;-88
2022/05/25 13:03:58;;;;;;;6.40;4.40;;;;;;;29.39;40.82;99533.53;4378472;32;32867;-89
2022/05/25 13:06:36;;;;;;;5.10;4.57;;;;;;;29.69;40.26;99530.66;4379782;32;33882;-89
2022/05/25 13:09:25;;;;;;;6.87;5.18;;;;;;;29.51;40.61;99526.50;4400350;32;32091;-87
2022/05/25 13:12:36;;;;;;;6.50;4.40;;;;;;;29.20;40.69;99526.84;4385820;32;34131;-87
2022/05/25 13:15:13;;;;;;;6.22;4.82;;;;;;;28.73;42.25;99522.75;4355389;32;33780;-88
2022/05/25 13:17:49;;;;;;;5.50;5.00;;;;;;;29.17;40.54;99521.81;4360439;32;33901;-88
2022/05/25 13:23:10;;;;;;;7.43;4.68;;;;;;;29.18;40.39;99528.91;4389444;32;34006;-86
2022/05/25 13:25:58;;;;;;;7.68;4.80;;;;;;;29.05;40.44;99523.34;4387021;32;33491;-86